Decoded Metar for SBSP (SAO PAULO in BRAZIL) (IATA:CGH) | Meteo·Mobile Aviation Weather
aviador You're here:

SBSP Decoded Metar

SAO PAULO in BRAZIL
Report Time2019-02-18 11:00:00
UTC Time2019-02-18 11:07:04
Flight Rules vfr VFR
Wind340° at 07 kt
W.Decomp.*RWY 35: 6.9 kt HW 1.3 kt RCW
W.Rank340° ranks 16
Current wind is below 340° avg. (8.3)
Visibility9999 m
Phenomena:N/A
Clouds:N/A
Expected CloudBase > 1,200 ft AGL from Temp-Dew spread
CeilingNone
Temp22°C (ISA +12)
Dew Point19°C (83% RH)
QNH1017 hPa
Density Alt4,222 ft
Elevation2,635 ft
Report Wrong Elevation
Raw Report
METAR SBSP 181100Z 34007KT CAVOK 22/19 Q1017=

Extra information for SBSP:More info

Metar Taf Metar & Taf Last 4 Metars F.Rules Stats Wind Profile Meteogram Temp Stats Airport Information Weather charts Add Link Nearby VenuesMetar ALERT Operation Metar Decoded Social comments